SHMÚ vydal meteorologické výstrahy na VietorPoľadovica Zobraziť výstrahy

TAF

Letisková predpoveď TAF

Informácie o správe TAF

20.02.2017 - 17:00 UTC

TAF AMD LZPP 202010Z 2020/2103 CNL=

20.02.2017 - 20:00 UTC

TAF LZSL 202000Z 2021/2106 23005KT 9999 OVC020
    TEMPO 2022/2106 VRB02KT 4000 -RA BKN005 OVC015=
TAF LZZI 202000Z 2021/2106 26006KT 5000 BR SCT010 BKN015
    PROB40 TEMPO 2021/2106 VRB02KT 2000 -RASN SCT005 OVC010=

20.02.2017 - 17:00 UTC

TAF LZIB 201700Z 2018/2118 25008KT 9999 SCT033
    BECMG 2022/2100 27020KT BKN020 OVC070
    PROB40 TEMPO 2100/2108 29025G35KT 6000 -RA BKN010 OVC020=
TAF LZKZ 201700Z 2018/2118 21008KT 0800 FG SCT001 OVC002
    TEMPO 2018/2022 0400 FG OVC001
    TEMPO 2102/2110 22015KT 1200 -RASN BKN003 OVC020=
TAF LZTT 201700Z 2018/2118 25012KT 9999 SCT030
    TEMPO 2020/2106 25015G25KT
    TEMPO 2103/2112 5000 -SN SCT005 OVC017=

20.02.2017 - 17:00 UTC

TAF LZSL 201700Z 2018/2103 23005KT 9999 SCT023=
TAF LZPP 201700Z 2018/2103 21006KT 4000 BR SCT005 BKN050
    TEMPO 2018/2103 VRB02KT 1500 BKN003=
TAF LZZI 201700Z 2018/2103 26006KT 5000 BR SCT010 BKN015
    PROB40 TEMPO 2018/2103 VRB02KT 2000 -RASN SCT005 OVC010=

20.02.2017 - 14:00 UTC

TAF LZSL 201400Z 2015/2100 27005KT 9999 BKN035=
TAF LZPP 201400Z 2015/2100 20003KT 4500 BR BKN005
    BECMG 2015/2017 23008KT 9999 SCT030 BKN060=
TAF LZZI 201400Z 2015/2100 26010KT 9999 SCT020 BKN033
    PROB40 TEMPO 2015/2100 -RASN SCT005 OVC033=

20.02.2017 - 11:00 UTC

TAF COR LZTT 201140Z 2012/2112 25012KT 9999 SCT033
    TEMPO 2020/2106 25015G25KT
    BECMG 2103/2105 7000 -SN SCT005 OVC017=

20.02.2017 - 11:00 UTC

TAF LZIB 201100Z 2012/2112 VRB02KT 2500 BR BKN004
    BECMG 2012/2014 28006KT 9999 FEW020 BKN030
    TEMPO 2013/2022 26014KT CAVOK
    BECMG 2022/2100 27020KT BKN020 OVC070
    TEMPO 2100/2108 29014KT 6000 RA BKN008 OVC020=
TAF LZKZ 201100Z 2012/2112 21005KT 0800 BCFG SCT001 OVC002
    BECMG 2012/2014 20010KT 2000 BR BKN005
    PROB30 TEMPO 2013/2015 3500 BR SCT005 BKN014
    TEMPO 2016/2022 0600 FG BKN002
    BECMG 2022/2100 22016KT 4000 BR SCT003 BKN050
    TEMPO 2104/2108 1200 -RASN BKN003 OVC020=
TAF LZTT 201100Z 2012/2112 25015KT 9999 SCT033
    BECMG 2016/2018 26015KT
    TEMPO 2020/2106 25015G25KT
    BECMG 2103/2105 7000 -SN SCT005 OVC017=

20.02.2017 - 11:00 UTC

TAF LZSL 201100Z 2012/2021 29004KT 9999 BKN040=
TAF LZPP 201100Z 2012/2021 20003KT 4500 BR BKN005
    BECMG 2012/2014 23008KT 9999 SCT030 BKN060=
TAF LZZI 201100Z 2012/2021 27010KT 9999 SCT020 BKN033
    TEMPO 2012/2018 -RASN SCT005 OVC033=

20.02.2017 - 08:00 UTC

TAF LZSL 200800Z 2009/2018 VRB02KT 3500 BR BKN040
    BECMG 2010/2012 25006KT 9999 SCT030=
TAF LZPP 200800Z 2009/2018 20003KT 0600 FG OVC002
    BECMG 2009/2011 4500 BR SCT005 BKN030
    BECMG 2012/2014 23008KT 9999 SCT030 BKN060=
TAF LZZI 200800Z 2009/2018 26004KT 5000 BR BKN010 BKN040
    TEMPO 2012/2018 23010KT -RASN SCT005 OVC033=

20.02.2017 - 05:00 UTC

TAF AMD LZPP 200604Z 2006/2015 20003KT 0800 FG OVC002
    TEMPO 2006/2009 0100 FZFG OVC001
    BECMG 2009/2011 4500 BR SCT005 BKN030
    BECMG 2012/2014 23008KT 9999 SCT030 BKN060=

20.02.2017 - 05:00 UTC

TAF LZSL 200500Z 2006/2015 VRB02KT 3500 BR BKN040
    TEMPO 2006/2009 2000 BR SCT003 SCT045
    PROB30 TEMPO 2006/2008 0600 FZFG BKN002
    BECMG 2010/2012 25006KT 9999 SCT030=
TAF LZPP 200500Z 2006/2015 20003KT 0800 FG OVC002
    TEMPO 2006/2009 0300 FZFG OVC001
    BECMG 2009/2011 4500 BR SCT005 BKN030
    BECMG 2012/2014 23008KT 9999 SCT030 BKN060=
TAF LZZI 200500Z 2006/2015 26004KT 5000 BR SCT012 BKN020
    TEMPO 2006/2009 2500 BR SCT002 BKN008
    PROB30 TEMPO 2006/2008 0700 FZFG BKN002
    TEMPO 2011/2015 23010KT 6000 -RASN SCT005 OVC014=

20.02.2017 - 05:00 UTC

TAF LZIB 200500Z 2006/2106 VRB02KT 0700 FG BKN002
    TEMPO 2006/2008 0100 FZFG VV001
    BECMG 2008/2011 28006KT 9999 FEW020 BKN030
    TEMPO 2013/2022 26014KT CAVOK
    BECMG 2022/2100 27020KT BKN020 OVC070
    TEMPO 2100/2106 29014KT 6000 RA BKN008 OVC020=
TAF LZKZ 200500Z 2006/2106 21005KT 0800 BCFG SCT001 OVC002
    TEMPO 2006/2009 VRB02KT 0300 FZFG OVC001
    BECMG 2010/2012 20010KT 2000 BR BKN005
    PROB40 TEMPO 2010/2015 3500 BR SCT005 BKN014
    TEMPO 2016/2022 0600 FG BKN002
    BECMG 2022/2100 22016KT 4000 BR SCT003 BKN050
    TEMPO 2104/2106 1200 -RASN BKN003 OVC020=
TAF LZTT 200500Z 2006/2106 VRB02KT 1200 BCFG SCT001 BKN002
    TEMPO 2006/2008 0100 FZFG OVC001
    BECMG 2008/2010 24010KT 9999 BKN035
    BECMG 2016/2018 26015KT
    TEMPO 2020/2106 25015G25KT
    BECMG 2103/2105 7000 -SN SCT005 OVC017=

20.02.2017 - 02:00 UTC

TAF LZSL 200200Z 2003/2012 VRB02KT 4500 BR BKN045
    TEMPO 2003/2009 2000 BR SCT003 SCT045
    PROB30 TEMPO 2003/2008 0600 FZFG BKN002
    BECMG 2010/2012 25006KT 9999 SCT030=
TAF LZZI 200200Z 2003/2012 26004KT 6000 BKN030
    BECMG 2003/2005 4500 BR SCT025
    TEMPO 2004/2009 0800 BCFG SCT002
    PROB40 TEMPO 2005/2008 0300 FZFG BKN002
    BECMG 2009/2011 23010KT 6000 -RA SCT005 OVC014=

skok na menu ↑


skok na začiatok stránky ↑